Time;durP1;ratioP1;P1;durP2;ratioP2;P2;SDS_P1;SDS_P2;PMS_P1;PMS_P2;Temp;Humidity;BMP_temperature;BMP_pressure;BME280_temperature;BME280_humidity;BME280_pressure;Samples;Min_cycle;Max_cycle;Signal;HPM_P1;HPM_P2
2022/04/12 00:00:42;;;;;;;;;2.50;2.25;;;;;17.40;48.64;100231.28;5062265;28;45313;-67
2022/04/12 00:03:09;;;;;;;;;4.75;4.00;;;;;17.40;49.14;100238.53;5061211;28;46427;-67
2022/04/12 00:05:35;;;;;;;;;3.75;3.75;;;;;17.38;49.07;100230.53;5055308;28;45291;-67
2022/04/12 00:08:01;;;;;;;;;3.50;3.50;;;;;17.35;49.14;100230.75;5056713;28;45266;-67
2022/04/12 00:10:29;;;;;;;;;4.25;3.00;;;;;17.39;49.18;100234.09;5061947;28;45374;-67
2022/04/12 00:12:56;;;;;;;;;5.00;5.00;;;;;17.37;48.82;100233.34;5061808;28;45401;-67
2022/04/12 00:15:21;;;;;;;;;6.00;5.00;;;;;17.33;49.18;100230.00;5051596;28;45381;-65
2022/04/12 00:20:31;;;;;;;;;4.00;4.00;;;;;17.36;49.27;100243.28;5061573;28;45453;-65
2022/04/12 00:22:58;;;;;;;;;4.00;4.00;;;;;17.33;49.54;100234.53;5061369;28;46137;-65
2022/04/12 00:25:24;;;;;;;;;4.00;3.00;;;;;17.32;49.33;100239.03;5063790;28;45337;-65
2022/04/12 00:27:52;;;;;;;;;4.25;3.25;;;;;17.35;49.53;100255.03;5060445;27;45425;-65
2022/04/12 00:30:21;;;;;;;;;4.00;4.00;;;;;17.31;49.13;100245.41;5061442;28;45462;-65
2022/04/12 00:32:50;;;;;;;;;4.50;4.50;;;;;17.29;49.33;100236.56;5061764;28;45748;-64
2022/04/12 00:35:16;;;;;;;;;5.25;5.00;;;;;17.31;49.59;100244.56;5059759;28;45244;-65
2022/04/12 00:37:41;;;;;;;;;3.25;3.25;;;;;17.32;49.81;100254.38;5058926;28;45307;-65
2022/04/12 00:40:08;;;;;;;;;3.75;3.75;;;;;17.28;49.38;100237.53;5066220;28;45812;-65
2022/04/12 00:42:33;;;;;;;;;4.00;4.00;;;;;17.28;49.83;100244.78;5061125;28;46410;-65
2022/04/12 00:44:59;;;;;;;;;4.25;3.50;;;;;17.16;49.74;100225.75;5059328;28;45529;-65
2022/04/12 00:47:25;;;;;;;;;4.00;4.00;;;;;17.21;49.59;100220.91;5059224;28;45400;-65
2022/04/12 00:49:50;;;;;;;;;5.50;4.00;;;;;17.16;49.94;100219.50;5061051;28;45457;-65
2022/04/12 00:52:16;;;;;;;;;4.75;4.75;;;;;17.17;49.85;100227.50;5061138;28;45328;-65
2022/04/12 00:54:42;;;;;;;;;7.00;5.50;;;;;17.15;49.95;100213.22;5060099;28;45299;-65
2022/04/12 00:57:09;;;;;;;;;5.50;4.75;;;;;17.13;49.83;100214.31;5052297;28;45376;-65
2022/04/12 00:59:35;;;;;;;;;4.00;4.00;;;;;17.12;50.04;100221.53;5076090;28;45505;-65
2022/04/12 01:02:07;;;;;;;;;4.25;4.25;;;;;17.08;49.78;100216.47;5061065;28;46144;-65
2022/04/12 01:04:33;;;;;;;;;5.75;4.00;;;;;17.07;50.23;100220.13;5059208;28;45658;-65
2022/04/12 01:07:00;;;;;;;;;1.75;1.75;;;;;17.03;49.99;100220.31;5055160;28;45425;-65
2022/04/12 01:09:26;;;;;;;;;4.50;4.50;;;;;17.03;50.24;100205.97;5057777;28;45525;-65
2022/04/12 01:11:53;;;;;;;;;4.00;3.50;;;;;16.97;50.08;100191.09;5058738;28;46373;-65
2022/04/12 01:14:19;;;;;;;;;6.00;6.00;;;;;16.94;50.23;100187.72;5058931;28;45785;-64
2022/04/12 01:16:45;;;;;;;;;6.25;5.25;;;;;16.98;50.24;100189.25;5046473;28;45273;-65
2022/04/12 01:19:10;;;;;;;;;4.50;4.00;;;;;16.95;50.24;100195.72;5060144;28;45627;-65
2022/04/12 01:21:42;;;;;;;;;6.50;4.75;;;;;16.95;49.98;100206.50;5059732;28;46978;-64
2022/04/12 01:24:08;;;;;;;;;4.25;4.25;;;;;16.92;50.35;100206.69;5055240;28;45592;-64
2022/04/12 01:26:33;;;;;;;;;4.00;4.00;;;;;16.93;50.40;100212.97;5054964;28;45527;-65
2022/04/12 01:28:59;;;;;;;;;4.00;4.00;;;;;16.95;50.39;100209.19;5059382;28;45562;-65
2022/04/12 01:31:26;;;;;;;;;3.25;3.25;;;;;16.89;50.20;100209.63;5060837;28;45386;-65
2022/04/12 01:33:52;;;;;;;;;5.75;4.00;;;;;16.88;50.30;100209.72;5058733;28;45385;-65
2022/04/12 01:36:18;;;;;;;;;3.25;3.25;;;;;16.83;50.29;100200.06;5058800;28;45477;-65
2022/04/12 01:38:43;;;;;;;;;4.50;4.25;;;;;16.85;50.45;100202.69;5059168;28;45547;-65
2022/04/12 01:41:08;;;;;;;;;4.25;4.00;;;;;16.82;50.63;100201.06;5050365;28;46304;-64
2022/04/12 01:43:34;;;;;;;;;4.25;4.25;;;;;16.78;50.55;100201.34;5059627;28;45290;-65
2022/04/12 01:45:59;;;;;;;;;5.50;4.00;;;;;16.71;50.66;100203.59;5056013;28;45352;-64
2022/04/12 01:48:25;;;;;;;;;5.00;4.00;;;;;16.71;50.63;100225.16;5057907;28;45346;-64
2022/04/12 01:50:51;;;;;;;;;3.00;3.00;;;;;16.71;50.92;100232.38;5060516;28;45374;-65
2022/04/12 01:53:16;;;;;;;;;3.50;3.50;;;;;16.68;50.90;100228.03;5058183;28;45464;-65
2022/04/12 01:55:41;;;;;;;;;5.50;4.25;;;;;16.70;50.80;100236.88;5060617;28;45429;-64
2022/04/12 01:58:07;;;;;;;;;4.75;4.00;;;;;16.71;50.63;100233.25;5049432;28;45724;-64
2022/04/12 02:00:34;;;;;;;;;3.00;3.00;;;;;16.65;50.89;100214.78;5060350;28;46169;-64
2022/04/12 02:02:59;;;;;;;;;3.25;3.25;;;;;16.63;50.90;100212.16;5060131;28;45366;-64
2022/04/12 02:05:24;;;;;;;;;4.25;4.25;;;;;16.65;50.85;100214.78;5058791;28;45448;-65
2022/04/12 02:07:49;;;;;;;;;6.25;5.00;;;;;16.63;50.89;100217.56;5047600;28;45477;-65
2022/04/12 02:10:15;;;;;;;;;5.75;4.00;;;;;16.63;50.65;100206.78;5059552;28;45410;-64
2022/04/12 02:12:40;;;;;;;;;5.00;3.00;;;;;16.64;50.70;100216.59;5052492;28;45338;-65
2022/04/12 02:15:06;;;;;;;;;5.25;5.00;;;;;16.59;51.02;100217.84;5052147;28;45291;-65
2022/04/12 02:17:31;;;;;;;;;5.50;4.50;;;;;16.54;50.88;100210.09;5051527;28;45595;-65
2022/04/12 02:19:57;;;;;;;;;3.50;3.25;;;;;16.52;51.15;100214.69;5059759;28;46469;-65
2022/04/12 02:22:23;;;;;;;;;4.50;4.50;;;;;16.51;50.93;100212.13;5059396;28;45326;-64
2022/04/12 02:24:48;;;;;;;;;5.00;4.00;;;;;16.47;51.40;100193.47;5056419;28;45398;-64
2022/04/12 02:27:13;;;;;;;;;5.00;5.00;;;;;16.49;51.24;100198.75;5057578;28;45444;-65
2022/04/12 02:29:39;;;;;;;;;4.75;4.75;;;;;16.50;51.15;100203.16;5059451;28;45387;-64
2022/04/12 02:32:05;;;;;;;;;3.00;3.00;;;;;16.49;50.79;100204.16;5059577;28;45419;-65
2022/04/12 02:34:31;;;;;;;;;4.00;4.00;;;;;16.43;51.16;100200.00;5051659;28;45465;-64
2022/04/12 02:36:56;;;;;;;;;5.00;4.25;;;;;16.41;51.06;100209.19;5051383;28;45516;-65
2022/04/12 02:39:21;;;;;;;;;4.50;4.50;;;;;16.38;51.16;100204.84;5058953;28;46296;-65
2022/04/12 02:41:48;;;;;;;;;6.00;6.00;;;;;16.37;51.16;100221.97;5059600;28;45436;-64
2022/04/12 02:44:14;;;;;;;;;4.00;4.00;;;;;16.33;51.20;100209.66;5057746;28;45394;-65
2022/04/12 02:46:39;;;;;;;;;5.00;4.00;;;;;16.32;51.23;100205.22;5054813;28;45318;-65
2022/04/12 02:49:04;;;;;;;;;4.75;4.75;;;;;16.29;51.25;100197.38;5058913;28;47130;-65
2022/04/12 02:51:30;;;;;;;;;4.00;3.00;;;;;16.33;51.36;100214.19;5059263;28;45303;-65
2022/04/12 02:53:55;;;;;;;;;4.00;4.00;;;;;16.31;51.24;100211.59;5057919;28;45330;-65
2022/04/12 02:56:20;;;;;;;;;2.50;2.50;;;;;16.30;51.26;100202.66;5057840;28;45470;-66
2022/04/12 02:58:46;;;;;;;;;4.00;4.00;;;;;16.29;51.40;100210.84;5074471;28;46262;-65
2022/04/12 03:01:11;;;;;;;;;6.50;4.00;;;;;16.27;51.28;100210.94;5057470;28;45431;-65
2022/04/12 03:03:36;;;;;;;;;2.00;2.00;;;;;16.22;51.39;100198.72;5058069;28;45323;-66
2022/04/12 03:06:02;;;;;;;;;5.00;5.00;;;;;16.22;51.13;100191.53;5062046;28;45260;-65
2022/04/12 03:08:28;;;;;;;;;4.00;4.00;;;;;16.21;51.42;100192.47;5059024;28;47895;-66
2022/04/12 03:10:53;;;;;;;;;5.00;5.00;;;;;16.21;51.24;100181.72;5062675;28;45294;-66
2022/04/12 03:13:18;;;;;;;;;5.00;4.00;;;;;16.15;51.31;100170.47;5062467;28;45217;-65
2022/04/12 03:15:44;;;;;;;;;7.00;3.50;;;;;16.07;51.41;100161.06;5050236;28;45319;-66
2022/04/12 03:18:10;;;;;;;;;4.25;4.25;;;;;16.04;51.10;100149.63;5074872;28;46962;-65
2022/04/12 03:20:36;;;;;;;;;4.00;4.00;;;;;16.11;51.57;100167.97;5061369;28;45584;-65
2022/04/12 03:23:01;;;;;;;;;4.25;4.25;;;;;16.07;51.39;100174.53;5061732;28;45223;-65
2022/04/12 03:25:27;;;;;;;;;3.75;3.75;;;;;16.00;51.38;100161.53;5052154;28;45347;-65
2022/04/12 03:27:52;;;;;;;;;5.00;4.00;;;;;16.02;51.22;100163.19;5059490;28;45635;-66
2022/04/12 03:30:17;;;;;;;;;5.00;5.00;;;;;16.02;51.13;100173.06;5062347;28;45468;-65
2022/04/12 03:32:43;;;;;;;;;4.75;4.75;;;;;15.98;51.08;100163.47;5060554;28;45381;-66
2022/04/12 03:35:09;;;;;;;;;4.75;4.75;;;;;16.01;51.34;100166.84;5060858;28;45342;-65
2022/04/12 03:37:34;;;;;;;;;3.25;3.25;;;;;15.99;51.19;100162.50;5059104;28;46272;-66
2022/04/12 03:40:00;;;;;;;;;5.00;5.00;;;;;16.00;51.14;100180.38;5062141;28;45450;-65
2022/04/12 03:42:26;;;;;;;;;5.25;4.50;;;;;15.95;50.94;100183.38;5062488;28;45315;-65
2022/04/12 03:44:51;;;;;;;;;3.75;3.75;;;;;15.90;50.86;100183.69;5059691;28;45417;-65
2022/04/12 03:47:17;;;;;;;;;3.75;3.75;;;;;15.91;50.89;100196.16;5060039;28;45890;-65
2022/04/12 03:49:43;;;;;;;;;4.25;4.25;;;;;15.93;50.99;100196.94;5051179;28;45346;-65
2022/04/12 03:52:09;;;;;;;;;3.00;3.00;;;;;15.86;50.73;100190.22;5062287;28;45308;-66
2022/04/12 03:54:35;;;;;;;;;5.00;5.00;;;;;15.88;50.77;100188.28;5056699;28;45307;-66
2022/04/12 03:57:00;;;;;;;;;5.75;3.75;;;;;15.82;50.70;100185.09;5060126;28;45298;-66
2022/04/12 03:59:26;;;;;;;;;5.75;4.00;;;;;15.74;50.84;100175.66;5061876;28;45337;-66
2022/04/12 04:01:51;;;;;;;;;3.25;3.25;;;;;15.76;50.47;100175.59;5074396;28;45441;-65
2022/04/12 04:04:17;;;;;;;;;3.00;3.00;;;;;15.78;50.42;100184.44;5074388;28;45536;-66
2022/04/12 04:06:42;;;;;;;;;2.00;2.00;;;;;15.76;50.52;100182.81;5059796;28;45607;-66
2022/04/12 04:09:08;;;;;;;;;2.75;2.75;;;;;15.73;50.46;100170.38;5061048;28;45715;-65
2022/04/12 04:11:33;;;;;;;;;1.50;1.50;;;;;15.73;50.48;100179.31;5062484;28;45318;-65
2022/04/12 04:14:03;;;;;;;;;4.00;3.00;;;;;15.72;50.41;100184.81;5059704;28;45680;-66
2022/04/12 04:16:28;;;;;;;;;4.25;3.00;;;;;15.65;50.38;100162.81;5053579;28;48235;-66
2022/04/12 04:18:54;;;;;;;;;4.00;4.00;;;;;15.69;50.29;100176.94;5058506;28;45610;-65
2022/04/12 04:21:19;;;;;;;;;4.00;4.00;;;;;15.66;50.45;100187.88;5060361;28;45481;-65
2022/04/12 04:23:45;;;;;;;;;3.00;3.00;;;;;15.64;50.15;100192.50;5054813;28;45240;-66
2022/04/12 04:26:10;;;;;;;;;4.50;3.00;;;;;15.63;50.28;100193.44;5056543;28;46084;-65
2022/04/12 04:28:36;;;;;;;;;3.00;3.00;;;;;15.60;50.29;100193.63;5059641;28;45388;-65
2022/04/12 04:31:01;;;;;;;;;6.00;3.75;;;;;15.61;50.13;100195.38;5061728;28;45406;-66
2022/04/12 04:33:27;;;;;;;;;4.25;3.50;;;;;15.56;49.97;100193.81;5056377;28;45429;-65
2022/04/12 04:35:53;;;;;;;;;3.00;3.00;;;;;15.56;50.22;100198.34;5060493;28;46377;-66
2022/04/12 04:38:18;;;;;;;;;3.00;3.00;;;;;15.59;50.31;100200.84;5060042;28;45401;-65
2022/04/12 04:40:44;;;;;;;;;2.75;2.75;;;;;15.53;50.20;100188.63;5061560;28;45878;-66
2022/04/12 04:43:09;;;;;;;;;3.25;3.25;;;;;15.57;49.98;100198.25;5060434;28;46950;-65
2022/04/12 04:45:36;;;;;;;;;3.50;3.50;;;;;15.56;50.28;100209.09;5059043;28;46973;-65
2022/04/12 04:48:03;;;;;;;;;3.00;3.00;;;;;15.58;50.44;100215.25;5059005;28;45454;-65
2022/04/12 04:50:30;;;;;;;;;3.00;3.00;;;;;15.59;50.18;100211.63;5060720;28;45457;-65
2022/04/12 04:52:56;;;;;;;;;3.00;3.00;;;;;15.62;50.24;100218.59;5060446;28;45300;-65
2022/04/12 04:55:22;;;;;;;;;5.00;4.00;;;;;15.63;50.11;100225.72;5060903;28;45401;-66
2022/04/12 04:57:52;;;;;;;;;3.00;3.00;;;;;15.62;50.13;100218.59;5060621;28;45400;-65
2022/04/12 05:00:18;;;;;;;;;4.00;4.00;;;;;15.61;49.94;100217.75;5059800;28;45311;-65
2022/04/12 05:02:44;;;;;;;;;5.75;4.00;;;;;15.58;50.00;100217.94;5061392;28;45400;-65
2022/04/12 05:05:10;;;;;;;;;5.00;5.00;;;;;15.57;49.93;100218.91;5060216;28;46177;-65
2022/04/12 05:07:39;;;;;;;;;5.50;4.00;;;;;15.51;49.83;100228.22;5058481;28;45335;-65
2022/04/12 05:10:05;;;;;;;;;4.25;3.00;;;;;15.48;50.02;100224.84;5060712;28;45636;-66
2022/04/12 05:12:31;;;;;;;;;3.00;3.00;;;;;15.37;50.31;100210.25;5061121;28;45429;-66
2022/04/12 05:14:56;;;;;;;;;4.00;4.00;;;;;15.37;50.33;100229.06;5057306;28;46530;-66
2022/04/12 05:17:26;;;;;;;;;5.75;5.00;;;;;15.40;50.52;100249.50;5058869;28;45571;-65
2022/04/12 05:19:52;;;;;;;;;3.75;3.75;;;;;15.38;50.19;100254.13;5055113;28;45404;-65
2022/04/12 05:22:17;;;;;;;;;5.00;5.00;;;;;15.36;50.44;100248.84;5060413;28;45504;-65
2022/04/12 05:24:43;;;;;;;;;5.00;5.00;;;;;15.33;50.23;100240.94;5057731;28;47137;-65
2022/04/12 05:27:09;;;;;;;;;4.25;4.25;;;;;15.33;50.47;100237.41;5058845;28;45447;-66
2022/04/12 05:29:34;;;;;;;;;4.00;4.00;;;;;15.28;50.54;100248.41;5060479;28;45332;-66
2022/04/12 05:32:00;;;;;;;;;6.75;5.75;;;;;15.27;50.48;100253.88;5059909;28;45360;-66
2022/04/12 05:34:25;;;;;;;;;5.25;5.25;;;;;15.18;50.63;100248.13;5056760;28;46031;-65
2022/04/12 05:36:51;;;;;;;;;6.00;3.00;;;;;15.16;50.57;100255.41;5047455;28;45561;-66
2022/04/12 05:39:16;;;;;;;;;5.00;4.00;;;;;15.16;50.77;100243.78;5057488;28;45373;-66
2022/04/12 05:41:41;;;;;;;;;3.50;3.50;;;;;15.11;50.52;100244.06;5060603;28;45346;-66
2022/04/12 05:44:07;;;;;;;;;6.50;5.75;;;;;15.08;50.99;100241.53;5059755;28;45689;-66
2022/04/12 05:46:32;;;;;;;;;4.50;4.50;;;;;15.08;50.96;100249.59;5045886;28;45299;-65
2022/04/12 05:48:58;;;;;;;;;2.75;2.75;;;;;15.07;50.74;100264.03;5060097;28;45414;-66
2022/04/12 05:51:23;;;;;;;;;4.00;4.00;;;;;15.07;50.92;100272.09;5060186;28;45540;-66
2022/04/12 05:53:48;;;;;;;;;5.00;3.25;;;;;14.97;50.64;100255.63;5058943;28;46249;-66
2022/04/12 05:56:14;;;;;;;;;4.75;4.75;;;;;15.05;51.28;100271.31;5059200;28;45358;-66
2022/04/12 05:58:40;;;;;;;;;4.50;4.50;;;;;15.01;50.90;100277.81;5088433;27;45451;-66
2022/04/12 06:01:06;;;;;;;;;5.00;4.75;;;;;14.99;50.92;100277.03;5060098;28;45544;-66
2022/04/12 06:03:31;;;;;;;;;6.00;4.75;;;;;15.00;51.37;100278.75;5059166;28;45382;-65
2022/04/12 06:05:57;;;;;;;;;6.00;5.00;;;;;14.99;51.11;100274.34;5059247;28;45370;-66
2022/04/12 06:08:22;;;;;;;;;7.50;5.00;;;;;15.01;51.29;100278.66;5047303;28;45632;-66
2022/04/12 06:10:48;;;;;;;;;4.75;3.75;;;;;15.00;50.92;100284.13;5060173;28;45390;-66
2022/04/12 06:13:13;;;;;;;;;8.00;6.00;;;;;14.97;51.13;100278.97;5046414;28;45297;-66
2022/04/12 06:15:38;;;;;;;;;7.00;4.00;;;;;14.98;51.30;100283.34;5057223;28;45413;-67
2022/04/12 06:18:04;;;;;;;;;6.25;5.00;;;;;14.92;51.35;100268.47;5058442;28;45992;-67
2022/04/12 06:20:29;;;;;;;;;5.25;5.00;;;;;14.92;51.22;100276.53;5054056;28;45405;-67
2022/04/12 06:22:55;;;;;;;;;5.75;4.75;;;;;14.89;51.46;100279.41;5057638;28;45349;-67
2022/04/12 06:25:20;;;;;;;;;5.25;5.25;;;;;14.92;51.42;100294.50;5059835;28;45445;-67
2022/04/12 06:27:50;;;;;;;;;6.25;4.75;;;;;14.92;51.56;100295.34;5057861;28;45434;-67
2022/04/12 06:30:28;;;;;;;;;5.75;5.00;;;;;14.97;51.19;100292.41;5080202;27;45850;-67
2022/04/12 06:32:54;;;;;;;;;5.00;4.00;;;;;14.98;51.53;100304.88;5056575;28;46065;-67
2022/04/12 06:35:20;;;;;;;;;4.75;4.00;;;;;14.99;51.50;100311.97;5058306;28;45327;-67
2022/04/12 06:37:47;;;;;;;;;6.00;5.00;;;;;14.96;51.27;100312.16;5052507;28;45547;-67
2022/04/12 06:40:16;;;;;;;;;6.75;6.00;;;;;14.83;51.39;100298.53;5045118;28;45463;-68
2022/04/12 06:42:41;;;;;;;;;7.00;5.50;;;;;14.93;51.46;100317.69;5055960;28;46065;-67
2022/04/12 06:45:08;;;;;;;;;5.00;4.50;;;;;14.91;51.58;100323.16;5057228;28;45333;-69
2022/04/12 06:47:34;;;;;;;;;3.00;3.00;;;;;14.96;51.34;100325.59;5051059;28;45786;-68
2022/04/12 06:49:59;;;;;;;;;5.00;5.00;;;;;15.00;51.25;100335.19;5058931;27;45493;-69
2022/04/12 06:52:25;;;;;;;;;5.00;4.50;;;;;14.99;51.03;100334.34;5042742;28;45452;-69
2022/04/12 06:54:51;;;;;;;;;5.00;4.00;;;;;15.00;51.33;100330.72;5049837;28;45419;-69
2022/04/12 06:57:17;;;;;;;;;4.75;4.75;;;;;15.03;51.26;100340.41;5051385;28;45849;-69
2022/04/12 06:59:43;;;;;;;;;7.00;4.25;;;;;15.05;51.24;100354.66;5059299;28;45222;-69
2022/04/12 07:02:10;;;;;;;;;6.00;4.50;;;;;15.06;51.31;100352.81;5056026;28;45555;-67
2022/04/12 07:04:35;;;;;;;;;4.00;4.00;;;;;15.06;50.97;100363.56;5046598;28;45521;-67
2022/04/12 07:07:01;;;;;;;;;4.00;4.00;;;;;15.03;50.73;100363.75;5055945;28;45586;-67
2022/04/12 07:09:28;;;;;;;;;6.50;3.75;;;;;15.05;50.95;100357.34;5045572;28;45317;-66
2022/04/12 07:11:54;;;;;;;;;6.25;5.00;;;;;15.06;50.74;100371.63;5043252;28;46664;-66
2022/04/12 07:14:21;;;;;;;;;3.50;3.50;;;;;15.06;50.56;100374.31;5055018;28;45871;-66
2022/04/12 07:16:46;;;;;;;;;5.00;5.00;;;;;15.08;50.78;100378.63;5057985;28;45382;-66
2022/04/12 07:19:12;;;;;;;;;3.50;3.50;;;;;15.06;50.78;100377.00;5044563;28;45307;-66
2022/04/12 07:21:37;;;;;;;;;4.50;3.50;;;;;15.09;50.37;100380.38;5049596;28;45341;-66
2022/04/12 07:24:06;;;;;;;;;5.75;5.75;;;;;15.11;50.41;100378.47;5053610;28;45217;-66
2022/04/12 07:26:32;;;;;;;;;7.50;5.75;;;;;15.16;50.28;100380.91;5052928;28;45321;-66
2022/04/12 07:28:58;;;;;;;;;5.00;5.00;;;;;15.24;50.16;100380.47;5065211;28;45344;-66
2022/04/12 07:31:23;;;;;;;;;4.50;4.50;;;;;15.24;50.31;100380.47;5050165;28;46432;-66
2022/04/12 07:33:49;;;;;;;;;4.00;4.00;;;;;15.25;50.19;100384.88;5050987;28;45375;-66
2022/04/12 07:36:14;;;;;;;;;3.75;3.75;;;;;15.35;49.90;100397.72;5052887;28;45753;-66
2022/04/12 07:38:41;;;;;;;;;4.00;3.75;;;;;15.39;49.85;100379.56;5055066;28;45315;-66
2022/04/12 07:41:06;;;;;;;;;5.25;5.25;;;;;15.43;49.90;100378.44;5057408;28;46564;-66
2022/04/12 07:43:31;;;;;;;;;4.25;3.25;;;;;15.49;50.12;100375.38;5041332;28;45582;-66
2022/04/12 07:45:57;;;;;;;;;4.00;4.00;;;;;15.51;49.31;100370.78;5055981;28;45482;-66
2022/04/12 07:48:22;;;;;;;;;3.75;2.00;;;;;15.55;49.44;100374.16;5052261;28;45594;-66
2022/04/12 07:50:48;;;;;;;;;4.75;4.00;;;;;15.62;49.68;100380.03;5044381;28;48171;-67
2022/04/12 07:53:14;;;;;;;;;6.00;4.25;;;;;15.66;49.17;100378.91;5057773;28;45403;-67
2022/04/12 07:55:39;;;;;;;;;3.00;3.00;;;;;15.64;49.02;100378.13;5056829;28;45382;-67
2022/04/12 07:58:05;;;;;;;;;5.50;3.75;;;;;15.71;49.29;100380.34;5055558;28;45408;-66
2022/04/12 08:00:30;;;;;;;;;5.25;3.75;;;;;15.74;49.59;100360.47;5048950;28;46183;-66
2022/04/12 08:02:56;;;;;;;;;3.75;3.75;;;;;15.84;49.09;100364.38;5055243;28;45322;-66
2022/04/12 08:05:21;;;;;;;;;4.00;3.00;;;;;15.89;48.90;100370.34;5066700;28;45269;-66
2022/04/12 08:07:49;;;;;;;;;4.00;4.00;;;;;15.90;48.96;100346.97;5050171;28;45436;-66
2022/04/12 08:10:18;;;;;;;;;4.00;3.00;;;;;16.03;49.10;100355.19;5054378;28;46535;-67
2022/04/12 08:12:45;;;;;;;;;5.50;4.50;;;;;16.08;48.80;100355.75;5057281;28;45676;-67
2022/04/12 08:15:13;;;;;;;;;3.00;3.00;;;;;16.11;48.54;100359.13;5044514;28;45491;-67
2022/04/12 08:17:39;;;;;;;;;3.00;2.50;;;;;16.14;48.53;100360.78;5055822;28;45549;-67
2022/04/12 08:20:06;;;;;;;;;6.25;3.00;;;;;16.15;48.29;100346.34;5046613;28;46029;-66
2022/04/12 08:22:33;;;;;;;;;6.00;5.00;;;;;16.28;48.33;100362.59;5057266;28;45490;-67
2022/04/12 08:24:59;;;;;;;;;4.00;4.00;;;;;16.30;48.77;100356.19;5049152;28;45461;-67
2022/04/12 08:27:25;;;;;;;;;3.50;3.50;;;;;16.40;48.68;100361.84;5055407;28;46873;-68
2022/04/12 08:29:50;;;;;;;;;6.00;5.00;;;;;16.44;48.34;100357.16;5057474;28;46320;-67
2022/04/12 08:32:16;;;;;;;;;3.00;2.50;;;;;16.53;48.24;100361.94;5060631;28;45405;-67
2022/04/12 08:34:42;;;;;;;;;3.75;3.00;;;;;16.57;47.85;100352.72;5059323;28;45625;-67
2022/04/12 08:37:07;;;;;;;;;3.50;2.75;;;;;16.65;48.24;100357.59;5059258;28;45538;-67
2022/04/12 08:39:33;;;;;;;;;2.75;2.75;;;;;16.72;47.88;100349.97;5060645;28;45984;-68
2022/04/12 08:42:00;;;;;;;;;2.50;2.00;;;;;16.76;47.65;100348.84;5076655;28;45380;-68
2022/04/12 08:44:26;;;;;;;;;4.00;3.00;;;;;16.78;47.37;100347.75;5060876;28;45368;-68
2022/04/12 08:46:56;;;;;;;;;3.00;3.00;;;;;16.89;47.56;100359.69;5059743;28;45787;-67
2022/04/12 08:49:23;;;;;;;;;2.50;2.50;;;;;16.92;47.32;100351.41;5061084;28;46109;-68
2022/04/12 08:51:49;;;;;;;;;3.75;3.00;;;;;16.97;47.34;100344.78;5060443;28;45247;-67
2022/04/12 08:54:16;;;;;;;;;3.25;3.25;;;;;17.07;47.14;100361.19;5047549;28;45563;-68
2022/04/12 08:56:44;;;;;;;;;8.00;3.50;;;;;17.11;46.89;100348.41;5061207;28;45377;-67
2022/04/12 08:59:10;;;;;;;;;3.00;3.00;;;;;17.16;46.86;100359.75;5059382;28;47235;-68
2022/04/12 09:01:35;;;;;;;;;3.50;2.50;;;;;17.22;47.05;100356.63;5056243;28;45363;-67
2022/04/12 09:04:00;;;;;;;;;2.25;2.00;;;;;17.24;46.36;100357.41;5051935;28;45292;-68
2022/04/12 09:06:26;;;;;;;;;3.50;2.00;;;;;17.32;46.45;100360.44;5046138;28;45324;-67
2022/04/12 09:08:51;;;;;;;;;5.50;2.75;;;;;17.36;46.38;100361.13;5055582;28;47874;-68
2022/04/12 09:11:17;;;;;;;;;3.50;2.75;;;;;17.39;46.19;100350.97;5060915;28;45289;-67
2022/04/12 09:14:03;;;;;;;;;9.25;5.75;;;;;17.51;46.77;100346.59;5059548;28;45398;-68
2022/04/12 09:16:28;;;;;;;;;2.50;1.25;;;;;17.58;46.04;100347.03;5058911;28;45350;-67
2022/04/12 09:18:54;;;;;;;;;3.25;3.25;;;;;17.65;45.92;100342.94;5060008;28;45805;-67
2022/04/12 09:21:22;;;;;;;;;3.00;2.00;;;;;17.72;45.82;100349.63;5058650;28;45389;-67
2022/04/12 09:23:52;;;;;;;;;4.25;4.25;;;;;17.77;45.55;100352.91;5060672;28;45398;-67
2022/04/12 09:26:26;;;;;;;;;2.25;2.25;;;;;17.85;45.66;100352.38;5057327;28;45415;-68
2022/04/12 09:28:53;;;;;;;;;1.50;1.50;;;;;17.93;45.30;100354.59;5060523;28;45639;-68
2022/04/12 09:31:20;;;;;;;;;2.50;0.50;;;;;17.94;44.86;100335.56;5060492;28;45318;-70
2022/04/12 09:33:48;;;;;;;;;1.75;1.75;;;;;17.95;45.17;100331.88;5060553;28;45398;-68
2022/04/12 09:36:14;;;;;;;;;2.25;1.75;;;;;18.08;45.18;100341.84;5060158;28;45610;-68
2022/04/12 09:38:42;;;;;;;;;1.75;1.75;;;;;18.14;45.15;100338.69;5060358;28;46026;-68
2022/04/12 09:41:14;;;;;;;;;1.75;1.75;;;;;18.19;44.70;100332.97;5058707;28;45389;-68
2022/04/12 09:43:53;;;;;;;;;3.00;2.00;;;;;18.26;44.76;100339.66;5057289;28;45188;-68
2022/04/12 09:46:19;;;;;;;;;0.75;0.75;;;;;18.30;44.60;100343.88;5046677;28;45461;-68
2022/04/12 09:48:48;;;;;;;;;1.50;1.50;;;;;18.34;44.88;100329.16;5060253;28;46202;-68
2022/04/12 09:51:15;;;;;;;;;5.50;3.00;;;;;18.39;44.74;100334.25;5059271;28;45500;-68
2022/04/12 09:53:42;;;;;;;;;1.75;1.75;;;;;18.44;44.97;100330.28;5054441;28;45488;-68
2022/04/12 09:56:35;;;;;;;;;1.75;1.75;;;;;18.55;44.69;100329.47;5059423;28;45533;-68
2022/04/12 09:59:06;;;;;;;;;1.00;1.00;;;;;18.59;44.19;100324.72;5070528;28;48300;-68
2022/04/12 10:01:33;;;;;;;;;1.75;1.75;;;;;18.66;44.44;100343.09;5060372;28;45421;-68
2022/04/12 10:03:59;;;;;;;;;2.50;1.50;;;;;18.69;44.39;100337.47;5061015;28;45329;-68
2022/04/12 10:06:27;;;;;;;;;1.25;1.25;;;;;18.76;44.11;100331.59;5058485;28;45259;-69
2022/04/12 10:09:04;;;;;;;;;2.75;2.00;;;;;18.75;44.22;100336.13;5044727;28;45460;-68
2022/04/12 10:11:30;;;;;;;;;1.75;1.75;;;;;18.82;43.98;100328.44;5052572;28;45478;-68
2022/04/12 10:13:56;;;;;;;;;1.50;1.50;;;;;18.83;44.31;100314.84;5059104;28;45259;-69
2022/04/12 10:16:22;;;;;;;;;1.25;1.25;;;;;18.89;43.46;100313.50;5058500;28;45538;-68
2022/04/12 10:18:49;;;;;;;;;3.00;2.00;;;;;18.93;44.25;100301.50;5057768;28;47482;-69
2022/04/12 10:21:14;;;;;;;;;1.00;1.00;;;;;18.98;43.54;100296.63;5059596;28;45409;-68
2022/04/12 10:23:43;;;;;;;;;4.75;1.25;;;;;19.01;43.83;100296.38;5059522;28;45472;-69
2022/04/12 10:26:10;;;;;;;;;2.00;2.00;;;;;19.02;43.38;100289.97;5059806;28;45259;-68
2022/04/12 10:28:37;;;;;;;;;1.50;1.50;;;;;19.07;43.61;100297.75;5053633;28;46176;-69
2022/04/12 10:31:15;;;;;;;;;1.75;1.75;;;;;19.14;43.58;100298.16;5058049;28;45335;-69
2022/04/12 10:33:40;;;;;;;;;2.00;2.00;;;;;19.14;43.68;100280.06;5054363;28;45426;-69
2022/04/12 10:36:07;;;;;;;;;1.75;1.75;;;;;19.22;43.79;100283.06;5059450;28;45511;-68
2022/04/12 10:38:43;;;;;;;;;1.50;1.00;;;;;19.24;43.74;100294.66;5054922;28;48226;-69
2022/04/12 10:41:33;;;;;;;;;2.00;2.00;;;;;19.26;43.36;100289.09;5057089;28;45476;-69
2022/04/12 10:43:58;;;;;;;;;2.00;2.00;;;;;19.29;43.44;100301.56;5058190;28;45455;-69
2022/04/12 10:46:26;;;;;;;;;1.50;1.00;;;;;19.29;43.20;100307.81;5039953;28;45403;-68
2022/04/12 10:48:55;;;;;;;;;2.25;2.00;;;;;19.35;43.44;100317.34;5051920;28;45246;-68
2022/04/12 10:51:39;;;;;;;;;3.75;3.75;;;;;19.38;43.78;100319.81;5059233;28;45330;-68
2022/04/12 10:54:09;;;;;;;;;2.00;2.00;;;;;19.40;43.27;100318.69;5059332;28;45501;-69
2022/04/12 10:56:35;;;;;;;;;2.00;2.00;;;;;19.44;43.50;100322.03;5059087;28;45173;-68
2022/04/12 10:59:00;;;;;;;;;2.50;2.50;;;;;19.49;43.82;100321.69;5054258;28;45256;-68
2022/04/12 11:01:30;;;;;;;;;3.50;2.25;;;;;19.52;44.07;100311.47;5048794;28;45263;-69
2022/04/12 11:03:57;;;;;;;;;5.75;3.00;;;;;19.56;43.70;100325.63;5057484;28;45377;-68
2022/04/12 11:06:24;;;;;;;;;2.50;2.50;;;;;19.57;43.59;100322.81;5058846;28;45349;-68
2022/04/12 11:08:55;;;;;;;;;3.00;1.50;;;;;19.62;43.37;100341.41;5055151;28;46062;-69
2022/04/12 11:11:36;;;;;;;;;1.75;1.75;;;;;19.62;43.26;100353.09;5045424;28;45975;-68
2022/04/12 11:14:25;;;;;;;;;1.50;1.50;;;;;19.61;43.09;100347.81;5057728;28;45197;-68
2022/04/12 11:16:55;;;;;;;;;4.50;2.75;;;;;19.61;43.36;100345.97;5043176;28;45325;-69
2022/04/12 11:19:22;;;;;;;;;5.75;4.00;;;;;19.69;43.26;100355.34;5057914;28;47004;-68
2022/04/12 11:21:51;;;;;;;;;3.00;2.50;;;;;19.71;43.57;100347.97;5058808;28;45240;-68
2022/04/12 11:24:20;;;;;;;;;2.00;2.00;;;;;19.73;43.17;100352.28;5058727;28;45404;-68